Butte, North Dakota
Current Conditions -  °F | °C
As of 4:15 AM on Saturday 25 Oct 2014 (Local Time) from K5H4 Reporting Station
Clear Clear  
Wind Chill: 30°   Ceiling: Unl
Heat Index: 36°   Visibility: 10mi
Dew Point: 32°   Wind: 7mph
Humidity: 87%   Direction: 240°WSW
Pressure: 30.05"   Gusts: NA
Location:  47.84°N, 100.67°W
Report Text: K5H4 250915Z AUTO 24006KT 10SM CLR 02/00 A3005 RMK AO2
Loading
Personal Weather Stations






























Interactive Weather Map
Tropical Storm Tracking
New forecast layout! Learn more

10-Day Weather Forecast

Advertisements
Track Severe Weather on mobile